Reinersville, Ohio
Current Conditions -  °F | °C
As of 10:53 AM on Monday 24 Nov 2014 (Local Time) from KZZV Reporting Station
Broken Clouds Broken Clouds  
Wind Chill: 64°   Ceiling: 6000
Heat Index: 64°   Visibility: 10mi
Dew Point: 47°   Wind: 26mph
Humidity: 54%   Direction: 210°SSW
Pressure: 29.39"   Gusts: 37mph
Location:  39.6878°N, 81.7727°W
Report Text: KZZV 241553Z AUTO 21023G32KT 10SM BKN060 BKN080 18/08 A2939 RMK AO2 PK WND 19043/1504 SLP949 T01780083
Loading
Personal Weather Stations






























Interactive Weather Map New forecast layout! Learn more

10-Day Weather Forecast

Advertisements
Track Severe Weather on mobile